Impacts TAF Board INFO
FOR SITUATIONAL AWARENESS. NOT TO BE USED FOR FLIGHT PLANNING PURPOSES.
IDs:

KDFW - Dallas-Ft Worth Intl, TX, US

Issued at 1743 UTC 25 Apr 2018
Updated at 2023 UTC 25 Apr 2018
Potential Impact None Slight Moderate High
Time2007Z 25/21Z 25/22Z 25/23Z 26/00Z 26/01Z 26/02Z 26/03Z 26/04Z 26/05Z 26/06Z 26/07Z 26/08Z 26/09Z>>
Type OBS PRVL PRVL PRVL PRVL PRVL PRVL PRVL PRVL PRVL PRVL PRVL PRVL PRVL
VIS 4 4 4 >6 >6 >6 >6 >6 >6 >6 >6 >6 >6 >6
CIG 14 15 15 -- -- -- -- -- -- -- -- -- -- --
Cover OVC OVC OVC SCT SCT SCT SCT FEW FEW FEW FEW FEW FEW FEW
FltCat MVFR MVFR MVFR VFR VFR VFR VFR VFR VFR VFR VFR VFR VFR VFR
WX -RA BR -SHRA VCTS -SHRA VCTS -- -- -- -- -- -- -- -- -- -- --
WDir 310 350 350 340 340 340 340 310 310 310 310 310 310 310
WSpd 11 14 14 13 13 13 13 7 7 7 7 7 7 7
WGst -- -- -- -- -- -- -- -- -- -- -- -- -- --

Raw TAF
KDFW 251743Z 2518/2624 35018G25KT P6SM VCSH BKN020
  FM251900 35014KT 4SM -SHRA VCTS BKN015CB OVC022
  FM252300 34013KT P6SM SCT030
  FM260300 31007KT P6SM FEW030


Raw METAR
KDFW 252007Z 31011KT 4SM R17C/6000VP6000FT -RA BR SCT009 OVC014 13/12 A3012 RMK AO2 RAB1956 P0001 T01280122
KDFW 251953Z 33011KT 10SM OVC012 13/12 A3012 RMK AO2 RAE28 SLP195 P0003 T01330117
KDFW 251921Z 33013KT 9SM -RA BKN012 BKN043 OVC100 13/12 A3012 RMK AO2 P0003 T01330122
KDFW 251853Z 34015KT 6SM RA BR FEW017 BKN070 OVC100 13/12 A3012 RMK AO2 RAB30 SLP197 P0002 T01330117
KDFW 251821Z 36012KT 10SM SCT020 BKN049 OVC090 15/10 A3014 RMK AO2 SHRA SW-NW T01500100
KDFW 251753Z 36014G25KT 10SM BKN020 OVC090 16/10 A3016 RMK AO2 PK WND 35027/1742 SLP206 SHRA DSNT NW T01560100 10183 20139 51007

METAR Board
Radar Display
Forecast Discussion

FOR SITUATIONAL AWARENESS. NOT TO BE USED FOR FLIGHT PLANNING PURPOSES.